Telemetry
Timestamp Node Air Util TX Channel Util Battery Uptime Voltage Current Barometric Pressure Relative Humidity Temperature Gas Resistance
2026-05-04 14:17:10 RF67 0.03% 15.6% 101% 65 3.43 V
2026-05-04 14:17:10 RF67 0.03% 15.6% 101% 65 3.43 V
2026-05-04 14:17:03 RF67 0.03% 15.6% 101% 65 3.43 V
2026-05-04 14:17:03 RF67 0.03% 15.6% 101% 65 3.43 V
2026-05-04 14:17:03 RF67 0.03% 15.6% 101% 65 3.43 V
2026-05-04 14:14:27 PcL1 0.11% 0.0% 97% 71551 4.15 V
2026-05-04 14:14:26 PcL1 0.11% 0.0% 97% 71551 4.15 V
2026-05-04 14:13:51 DJMH 0.34% 0.0% 91% 6219401 4.07 V
2026-05-04 14:13:51 DJMH 0.34% 0.0% 91% 6219401 4.07 V
2026-05-04 14:13:17 RF67 0.03% 11.0% 101% 65 3.43 V
2026-05-04 14:13:17 RF67 0.03% 11.0% 101% 65 3.43 V
2026-05-04 14:13:17 RF67 0.03% 11.0% 101% 65 3.43 V
2026-05-04 14:11:42 ah03
2026-05-04 14:11:24 ah03
2026-05-04 14:11:24 ah03
2026-05-04 14:11:22 ah03
2026-05-04 14:11:21 ah03
2026-05-04 14:11:21 ah03
2026-05-04 14:10:58 LUK5 1.63% 1.6% 101% 91996 4.3 V
2026-05-04 14:10:57 LUK5 1.63% 1.6% 101% 91996 4.3 V
2026-05-04 14:10:24 LMGB 0.07% 0.0% 101% 19536 -0.0 V
2026-05-04 14:10:24 LMGB 0.07% 0.0% 101% 19536 -0.0 V
2026-05-04 14:09:39 RF67 0.05% 11.5% 101% 65 3.43 V
2026-05-04 14:09:39 RF67 0.05% 11.5% 101% 65 3.43 V
2026-05-04 14:09:32 RF67 0.05% 11.5% 101% 65 3.43 V
2026-05-04 14:09:32 RF67 0.05% 11.5% 101% 65 3.43 V
2026-05-04 14:09:32 RF67 0.05% 11.5% 101% 65 3.43 V
2026-05-04 14:09:10 2369 0.94% 9.7% 6% 15727 3.23 V
2026-05-04 14:09:10 2369 0.94% 9.7% 6% 15727 3.23 V
2026-05-04 14:09:10 2369 0.94% 9.7% 6% 15727 3.23 V
2026-05-04 14:08:47 Wdst 0.95% 3.4% 72% 4114922 3.92 V
2026-05-04 14:08:46 Wdst 0.95% 3.4% 72% 4114922 3.92 V
2026-05-04 14:08:46 Wdst 0.95% 3.4% 72% 4114922 3.92 V
2026-05-04 14:06:48 JR70 0.17% 2.0% 91% 5897915 4.07 V
2026-05-04 14:06:48 JR70 0.17% 2.0% 91% 5897915 4.07 V
2026-05-04 14:06:26 RF67 0.05% 7.0% 101% 65 3.43 V
2026-05-04 14:06:26 RF67 0.05% 7.0% 101% 65 3.43 V
2026-05-04 14:06:26 RF67 0.05% 7.0% 101% 65 3.43 V
2026-05-04 14:06:21 IIXF 853.66 hPa 28.4% 30.14°C 209.68 Ohm
2026-05-04 14:06:21 IIXF 853.66 hPa 28.4% 30.14°C 209.68 Ohm
2026-05-04 14:06:02 SMWS 0.85% 0.0% 57% 530264 3.78 V
2026-05-04 14:06:02 SMWS 0.85% 0.0% 57% 530264 3.78 V
2026-05-04 14:05:57 IIXF 0.77% 2.3% 101% 13026 4.27 V
2026-05-04 14:05:56 IIXF 0.77% 2.3% 101% 13026 4.27 V
2026-05-04 14:05:49 PMT2 1.8% 4.6% 101% 2616729 4.2 V
2026-05-04 14:05:48 RF67 0.05% 7.0% 101% 65 3.43 V
2026-05-04 14:05:48 PMT2 1.8% 4.6% 101% 2616729 4.2 V
2026-05-04 14:05:46 RF67 0.05% 7.0% 101% 65 3.43 V
2026-05-04 14:05:46 RF67 0.05% 7.0% 101% 65 3.43 V
2026-05-04 14:05:46 RF67 0.05% 7.0% 101% 65 3.43 V
2026-05-04 14:05:45 PMT2 1.8% 4.6% 101% 2616729 4.2 V
2026-05-04 14:05:45 PMT2 1.8% 4.6% 101% 2616729 4.2 V
2026-05-04 14:05:40 HT77 872.86 hPa 47.36% 27.65°C
2026-05-04 14:05:39 HT77 872.86 hPa 47.36% 27.65°C
2026-05-04 14:05:36 ZS1G 0.1% 19.4% 100% 46 4.2 V
2026-05-04 14:05:15 RF02 1.19% 8.2% 101% 2501995 4.22 V
2026-05-04 14:05:15 RF02 1.19% 8.2% 101% 2501995 4.22 V
2026-05-04 14:05:15 RF02 1.19% 8.2% 101% 2501995 4.22 V
2026-05-04 14:05:11 ZS1G 0.1% 19.4% 100% 46 4.2 V
2026-05-04 14:05:09 ZS1G 0.1% 19.4% 100% 46 4.2 V
2026-05-04 14:04:31 ZS1G 0.1% 19.4% 100% 46 4.2 V
2026-05-04 14:04:30 ZS1G 0.1% 19.4% 100% 46 4.2 V
2026-05-04 14:04:30 ZS1G 0.1% 19.4% 100% 46 4.2 V
2026-05-04 14:03:48 ah03 1008.56 hPa 67.89% 19.46°C
2026-05-04 14:03:47 ah03 1008.56 hPa 67.89% 19.46°C
2026-05-04 14:03:21 ah03 1008.56 hPa 67.89% 19.46°C
2026-05-04 14:03:20 ah03 1008.56 hPa 67.89% 19.46°C
2026-05-04 14:03:20 ah03 1008.56 hPa 67.89% 19.46°C
2026-05-04 14:02:41 HT77 0.25% 0.0% 101% 709652 4.29 V
2026-05-04 14:02:41 HT77 0.25% 0.0% 101% 709652 4.29 V
2026-05-04 14:02:33 PTRH 0.23% 0.0% 58% 693672 3.78 V
2026-05-04 14:02:33 PTRH 0.23% 0.0% 58% 693672 3.78 V
2026-05-04 14:02:21 IIXH 0.68% 1.7% 100% 601538 4.2 V
2026-05-04 14:02:20 IIXH 0.68% 1.7% 100% 601538 4.2 V
2026-05-04 14:01:33 RF67 0.05% 7.2% 101% 65 3.43 V
2026-05-04 14:01:32 RF67 0.05% 7.2% 101% 65 3.43 V
2026-05-04 14:01:32 RF67 0.05% 7.2% 101% 65 3.43 V
2026-05-04 13:58:48 CLA1 3.78% 2.0% 101% 525353 4.16 V
2026-05-04 13:58:48 CLA1 3.78% 2.0% 101% 525353 4.16 V
2026-05-04 13:58:48 CLA1 3.78% 2.0% 101% 525353 4.16 V
2026-05-04 13:58:12 1ae9 26.55°C
2026-05-04 13:58:10 1ae9 26.55°C
2026-05-04 13:58:08 1ae9 26.55°C
2026-05-04 13:58:08 1ae9 26.55°C
2026-05-04 13:57:46 HAM1 3.89% 19.7% 97% 1425710 4.15 V
2026-05-04 13:57:46 HAM1 3.89% 19.7% 97% 1425710 4.15 V
2026-05-04 13:57:45 RF67 0.06% 18.7% 101% 65 3.43 V
2026-05-04 13:57:45 RF67 0.06% 18.7% 101% 65 3.43 V
2026-05-04 13:57:44 RF67 0.06% 18.7% 101% 65 3.43 V
2026-05-04 13:56:55 ah01 1.58% 4.7% 94% 1675015 4.12 V
2026-05-04 13:56:55 ah01 1.58% 4.7% 94% 1675015 4.12 V
2026-05-04 13:56:53 ah01 1.58% 4.7% 94% 1675015 4.12 V
2026-05-04 13:56:53 RX01 0.02% 0.0% 101% 4398 0.0 V
2026-05-04 13:56:53 ah01 1.58% 4.7% 94% 1675015 4.12 V
2026-05-04 13:56:52 RX01 0.02% 0.0% 101% 4398 0.0 V
2026-05-04 13:55:28 ZS1G 0.04% 13.3% 99% 46 4.19 V
2026-05-04 13:54:42 7274 0.39% 1.2% 100% 7529784 4.12 V
2026-05-04 13:54:42 7274 0.39% 1.2% 100% 7529784 4.12 V
2026-05-04 13:54:38 7274 0.39% 1.2% 100% 7529784 4.12 V
2026-05-04 13:54:38 7274 0.39% 1.2% 100% 7529784 4.12 V
2026-05-04 13:53:58 RF67 0.03% 12.3% 101% 65 3.43 V
2026-05-04 13:53:58 RF67 0.03% 12.3% 101% 65 3.43 V
2026-05-04 13:53:58 RF67 0.03% 12.3% 101% 65 3.43 V
2026-05-04 13:53:51 Wdst 1.03% 0.9% 72% 4114022 3.91 V
2026-05-04 13:53:50 Wdst 1.03% 0.9% 72% 4114022 3.91 V
2026-05-04 13:53:50 Wdst 1.03% 0.9% 72% 4114022 3.91 V
2026-05-04 13:52:50 ah03 0.56% 20.9% 72% 1260840 3.91 V
2026-05-04 13:52:49 ah03 0.56% 20.9% 72% 1260840 3.91 V
2026-05-04 13:51:35 LMBr 2.61% 22.1% 94% 3596480 4.11 V
2026-05-04 13:51:35 LMBr 2.61% 22.1% 94% 3596480 4.11 V
2026-05-04 13:51:32 LMBr 2.61% 22.1% 94% 3596480 4.11 V
2026-05-04 13:51:32 LMBr 2.61% 22.1% 94% 3596480 4.11 V
2026-05-04 13:51:21 LMBr 2.61% 22.1% 94% 3596480 4.11 V
2026-05-04 13:51:21 LMBr 2.61% 22.1% 94% 3596480 4.11 V
2026-05-04 13:50:31 ZS1G 0.07% 17.4% 101% 46 4.25 V
2026-05-04 13:50:31 ZS1G 0.07% 17.4% 101% 46 4.25 V
2026-05-04 13:50:13 RF67 0.03% 23.3% 101% 65 3.43 V
2026-05-04 13:50:13 RF67 0.03% 23.3% 101% 65 3.43 V
2026-05-04 13:50:13 RF67 0.03% 23.3% 101% 65 3.43 V
2026-05-04 13:50:06 RF01 0.44% 22.3% 101% 150029 4.22 V
2026-05-04 13:50:06 RF01 0.44% 22.3% 101% 150029 4.22 V
2026-05-04 13:49:56 RF01 0.44% 22.3% 101% 150029 4.22 V
2026-05-04 13:49:56 RF01 0.44% 22.3% 101% 150029 4.22 V
2026-05-04 13:49:50 RF01 0.44% 22.3% 101% 150029 4.22 V
2026-05-04 13:49:50 RF01 0.44% 22.3% 101% 150029 4.22 V
2026-05-04 13:49:50 RF01 0.44% 22.3% 101% 150029 4.22 V
2026-05-04 13:49:04 RF06 1.23% 0.0% 101% 13206 6.31 V
2026-05-04 13:49:03 RF06 1.23% 0.0% 101% 13206 6.31 V
2026-05-04 13:49:00 RF06 1.23% 0.0% 101% 13206 6.31 V
2026-05-04 13:49:00 RF06 1.23% 0.0% 101% 13206 6.31 V
2026-05-04 13:49:00 RF06 1.23% 0.0% 101% 13206 6.31 V
2026-05-04 13:48:32 IIXH 0.74% 1.7% 100% 600697 4.19 V
2026-05-04 13:48:31 IIXH 0.74% 1.7% 100% 600697 4.19 V
2026-05-04 13:48:21 IIXF 853.83 hPa 27.36% 30.7°C 209.42 Ohm
2026-05-04 13:48:21 IIXF 853.83 hPa 27.36% 30.7°C 209.42 Ohm
2026-05-04 13:48:07 DOS 1.94% 6.1% 100% 13743 4.2 V
2026-05-04 13:48:04 DOS 1.94% 6.1% 100% 13743 4.2 V
2026-05-04 13:48:04 DOS 1.94% 6.1% 100% 13743 4.2 V
2026-05-04 13:47:57 DOS 1.94% 6.1% 100% 13743 4.2 V
2026-05-04 13:47:56 IIXF 0.73% 2.2% 101% 11946 4.27 V
2026-05-04 13:47:56 IIXH 0.72% 2.4% 99% 600697 4.19 V
2026-05-04 13:47:55 DOS 1.94% 6.1% 100% 13743 4.2 V
2026-05-04 13:47:55 DOS 1.94% 6.1% 100% 13743 4.2 V
2026-05-04 13:47:39 HT77 873.31 hPa 47.2% 27.7°C
2026-05-04 13:47:39 HT77 873.31 hPa 47.2% 27.7°C
2026-05-04 13:47:33 976c 0.65% 5.4% 101% 4415149 4.22 V
2026-05-04 13:47:32 976c 0.65% 5.4% 101% 4415149 4.22 V
2026-05-04 13:47:21 IIXH 0.71% 1.8% 99% 600637 4.19 V
2026-05-04 13:47:20 IIXH 0.71% 1.8% 99% 600637 4.19 V
2026-05-04 13:47:12 SMWS 0.82% 0.0% 56% 529128 3.77 V
2026-05-04 13:47:12 SMWS 0.82% 0.0% 56% 529128 3.77 V
2026-05-04 13:46:27 RF67 0.03% 3.8% 101% 65 3.43 V
2026-05-04 13:46:27 RF67 0.03% 3.8% 101% 65 3.43 V
2026-05-04 13:46:27 RF67 0.03% 3.8% 101% 65 3.43 V
2026-05-04 13:44:40 HT77 0.26% 2.1% 101% 708572 4.29 V
2026-05-04 13:44:40 HT77 0.26% 2.1% 101% 708572 4.29 V
2026-05-04 13:44:27 LRX1 1.37% 3.5% 27% 105744 3.5 V
2026-05-04 13:44:27 LRX1 1.37% 3.5% 27% 105744 3.5 V
2026-05-04 13:44:23 LRX1 1.37% 3.5% 27% 105744 3.5 V
2026-05-04 13:44:21 LRX1 1.37% 3.5% 27% 105744 3.5 V
2026-05-04 13:44:21 LRX1 1.37% 3.5% 27% 105744 3.5 V
2026-05-04 13:44:21 LRX1 1.37% 3.5% 27% 105744 3.5 V
2026-05-04 13:43:55 DJMH 0.38% 0.0% 91% 6217601 4.07 V
2026-05-04 13:43:54 DJMH 0.38% 0.0% 91% 6217601 4.07 V
2026-05-04 13:42:41 RF67 0.03% 9.1% 101% 65 3.43 V
2026-05-04 13:42:41 RF67 0.03% 9.1% 101% 65 3.43 V
2026-05-04 13:42:41 RF67 0.03% 9.1% 101% 65 3.43 V
2026-05-04 13:39:59 RF67 0.03% 20.5% 101% 65 3.43 V
2026-05-04 13:39:47 LRX1 1004.55 hPa 63.07% 21.87°C
2026-05-04 13:39:46 LRX1 1004.55 hPa 63.07% 21.87°C
2026-05-04 13:39:46 LRX1 1004.55 hPa 63.07% 21.87°C
2026-05-04 13:38:59 RF67 0.03% 20.5% 101% 65 3.43 V
2026-05-04 13:38:58 RF67 0.03% 20.5% 101% 65 3.43 V
2026-05-04 13:38:57 RF67 0.03% 20.5% 101% 65 3.43 V
2026-05-04 13:38:57 RF67 0.03% 20.5% 101% 65 3.43 V
2026-05-04 13:38:46 Wdst 1.0% 10.0% 61% 4113122 3.82 V
2026-05-04 13:38:46 Wdst 1.0% 10.0% 61% 4113122 3.82 V
2026-05-04 13:38:46 Wdst 1.0% 10.0% 61% 4113122 3.82 V
2026-05-04 13:38:19 PcL1 0.11% 0.0% 99% 69384 4.18 V
2026-05-04 13:38:19 PcL1 0.11% 0.0% 99% 69384 4.18 V
2026-05-04 13:36:42 JR70 0.25% 4.2% 89% 5896109 4.05 V
2026-05-04 13:36:42 JR70 0.25% 4.2% 89% 5896109 4.05 V
2026-05-04 13:35:33 LMBt 0.24% 4.8% 55% 742885 3.76 V
2026-05-04 13:35:33 LMBt 0.24% 4.8% 55% 742885 3.76 V
2026-05-04 13:35:32 LMBt 0.24% 4.8% 55% 742885 3.76 V
2026-05-04 13:35:32 LMBt 0.24% 4.8% 55% 742885 3.76 V
2026-05-04 13:35:31 LMBt 0.24% 4.8% 55% 742885 3.76 V
2026-05-04 13:35:30 LMBt 0.24% 4.8% 55% 742885 3.76 V
2026-05-04 13:35:29 LMBt 0.24% 4.8% 55% 742885 3.76 V
2026-05-04 13:35:23 RF02 1.21% 9.7% 101% 2500195 4.21 V
2026-05-04 13:35:21 RF02 1.21% 9.7% 101% 2500195 4.21 V
2026-05-04 13:35:20 RF02 1.21% 9.7% 101% 2500195 4.21 V
2026-05-04 13:35:16 RF02 1.21% 9.7% 101% 2500195 4.21 V
2026-05-04 13:35:15 RF02 1.21% 9.7% 101% 2500195 4.21 V
2026-05-04 13:35:15 RF02 1.21% 9.7% 101% 2500195 4.21 V
2026-05-04 13:35:15 RF02 1.21% 9.7% 101% 2500195 4.21 V
2026-05-04 13:35:09 RF67 0.03% 7.7% 101% 65 3.43 V
2026-05-04 13:35:09 RF67 0.03% 7.7% 101% 65 3.43 V
2026-05-04 13:35:09 RF67 0.03% 7.7% 101% 65 3.43 V
2026-05-04 13:34:15 LMGB 0.07% 0.0% 101% 17367 -0.0 V
2026-05-04 13:34:15 LMGB 0.07% 0.0% 101% 17367 -0.0 V
2026-05-04 13:33:17 RLSC 994.24 hPa 76.28% 17.22°C
2026-05-04 13:33:17 RLSC 994.24 hPa 76.28% 17.22°C
2026-05-04 13:32:40 ah03 1008.79 hPa 67.59% 19.87°C
2026-05-04 13:32:40 ah03 1008.79 hPa 67.59% 19.87°C
2026-05-04 13:32:36 ah03 1008.79 hPa 67.59% 19.87°C
2026-05-04 13:32:35 ah03 1008.79 hPa 67.59% 19.87°C
2026-05-04 13:32:35 ah03 1008.79 hPa 67.59% 19.87°C
2026-05-04 13:32:34 ah03 1008.79 hPa 67.59% 19.87°C
2026-05-04 13:32:34 ah03 1008.79 hPa 67.59% 19.87°C
2026-05-04 13:32:33 ah03 1008.79 hPa 67.59% 19.87°C
2026-05-04 13:32:29 ah01 1.38% 2.0% 94% 1673574 4.11 V
2026-05-04 13:32:28 ah01 1.38% 2.0% 94% 1673574 4.11 V
2026-05-04 13:32:28 ah01 1.38% 2.0% 94% 1673574 4.11 V
2026-05-04 13:31:52 MELK 0.05% 0.0% 95% 4066744 4.13 V
2026-05-04 13:31:50 MELK 0.05% 0.0% 95% 4066744 4.13 V
2026-05-04 13:31:50 MELK 0.05% 0.0% 95% 4066744 4.13 V
2026-05-04 13:31:50 MELK 0.05% 0.0% 95% 4066744 4.13 V
2026-05-04 13:31:42 MELK 0.05% 0.0% 95% 4066744 4.13 V
2026-05-04 13:31:40 MELK 0.05% 0.0% 95% 4066744 4.13 V
2026-05-04 13:31:40 MELK 0.05% 0.0% 95% 4066744 4.13 V
2026-05-04 13:31:40 MELK 0.05% 0.0% 95% 4066744 4.13 V
2026-05-04 13:31:18 e536 0.23% 3.0% 97% 47304640 4.16 V
2026-05-04 13:31:09 RF67 0.03% 11.3% 101% 65 3.43 V
2026-05-04 13:31:09 RF67 0.03% 11.3% 101% 65 3.43 V
2026-05-04 13:30:54 RF67 0.03% 11.3% 101% 65 3.43 V
2026-05-04 13:30:53 RF67 0.03% 11.3% 101% 65 3.43 V
2026-05-04 13:30:53 RF67 0.03% 11.3% 101% 65 3.43 V
2026-05-04 13:30:29 tge0 2.25% 7.1% 6% 13512591 3.24 V
2026-05-04 13:30:28 tge0 2.25% 7.1% 6% 13512591 3.24 V
2026-05-04 13:30:27 tge0 2.25% 7.1% 6% 13512591 3.24 V
2026-05-04 13:30:24 tge0 2.25% 7.1% 6% 13512591 3.24 V
2026-05-04 13:30:24 tge0 2.25% 7.1% 6% 13512591 3.24 V
2026-05-04 13:30:21 IIXF 854.15 hPa 28.05% 30.59°C 205.64 Ohm
2026-05-04 13:30:21 IIXF 854.15 hPa 28.05% 30.59°C 205.64 Ohm
2026-05-04 13:29:56 IIXF 0.74% 1.8% 101% 10866 4.28 V
2026-05-04 13:29:56 IIXF 0.74% 1.8% 101% 10866 4.28 V
2026-05-04 13:28:44 PMT2 1.3% 0.0% 101% 2614509 4.2 V
2026-05-04 13:28:44 PMT2 1.3% 0.0% 101% 2614509 4.2 V
2026-05-04 13:28:41 PMT2 1.3% 0.0% 101% 2614509 4.2 V
2026-05-04 13:28:41 PMT2 1.3% 0.0% 101% 2614509 4.2 V
2026-05-04 13:28:37 PMT2 1.3% 0.0% 101% 2614509 4.2 V
2026-05-04 13:28:37 PMT2 1.3% 0.0% 101% 2614509 4.2 V
2026-05-04 13:27:26 2369 1.13% 8.5% 6% 13207 3.23 V
2026-05-04 13:27:19 2369 1.13% 8.5% 6% 13207 3.23 V
2026-05-04 13:27:18 2369 1.13% 8.5% 6% 13207 3.23 V
2026-05-04 13:27:17 2369 1.13% 8.5% 6% 13207 3.23 V
2026-05-04 13:27:17 2369 1.13% 8.5% 6% 13207 3.23 V
2026-05-04 13:27:13 2369 1.13% 8.5% 6% 13207 3.23 V
2026-05-04 13:27:13 2369 1.13% 8.5% 6% 13207 3.23 V
2026-05-04 13:27:13 2369 1.13% 8.5% 6% 13207 3.23 V
2026-05-04 13:27:12 RF67 0.03% 5.7% 101% 65 3.43 V
2026-05-04 13:27:12 RF67 0.03% 5.7% 101% 65 3.43 V
2026-05-04 13:27:12 RF67 0.03% 5.7% 101% 65 3.43 V
2026-05-04 13:27:10 RF67 0.03% 5.7% 101% 65 3.43 V
2026-05-04 13:27:08 RF67 0.03% 5.7% 101% 65 3.43 V
2026-05-04 13:27:08 RF67 0.03% 5.7% 101% 65 3.43 V
2026-05-04 13:27:08 RF67 0.03% 5.7% 101% 65 3.43 V
2026-05-04 13:26:24 PTRH 0.22% 0.0% 57% 691503 3.78 V
2026-05-04 13:26:24 PTRH 0.22% 0.0% 57% 691503 3.78 V
2026-05-04 13:25:43 ah02 53.64% 23.81°C
2026-05-04 13:25:43 ah02 53.64% 23.81°C
2026-05-04 13:25:42 ah02 53.64% 23.81°C
2026-05-04 13:25:40 ah02 53.64% 23.81°C
2026-05-04 13:25:39 ah02 53.64% 23.81°C
2026-05-04 13:25:39 ah02 53.64% 23.81°C
2026-05-04 13:25:20 ah02 0.04% 22.1% 69% 61 3.89 V
2026-05-04 13:25:19 ah02 0.04% 22.1% 69% 61 3.89 V
2026-05-04 13:25:19 ah02 0.04% 22.1% 69% 61 3.89 V
2026-05-04 13:24:47 htec 4.97% 9.6% 101% 16024 4.25 V
2026-05-04 13:24:29 htec 4.97% 9.6% 101% 16024 4.25 V
2026-05-04 13:24:29 htec 4.97% 9.6% 101% 16024 4.25 V
2026-05-04 13:24:25 htec 4.97% 9.6% 101% 16024 4.25 V
2026-05-04 13:24:23 htec 4.97% 9.6% 101% 16024 4.25 V
2026-05-04 13:24:22 htec 4.97% 9.6% 101% 16024 4.25 V
2026-05-04 13:23:46 Wdst 0.83% 12.0% 72% 4112221 3.91 V
2026-05-04 13:23:46 Wdst 0.83% 12.0% 72% 4112221 3.91 V
2026-05-04 13:23:46 Wdst 0.83% 12.0% 72% 4112221 3.91 V
2026-05-04 13:23:22 RF67 0.03% 14.8% 101% 65 3.44 V
2026-05-04 13:23:22 RF67 0.03% 14.8% 101% 65 3.44 V
2026-05-04 13:23:22 RF67 0.03% 14.8% 101% 65 3.44 V
2026-05-04 13:20:51 RX01 0.04% 0.0% 101% 2236 0.0 V
2026-05-04 13:20:51 RX01 0.04% 0.0% 101% 2236 0.0 V
2026-05-04 13:19:36 RF67 0.05% 8.8% 101% 65 3.43 V
2026-05-04 13:19:36 RF67 0.05% 8.8% 101% 65 3.43 V
2026-05-04 13:19:36 RF67 0.05% 8.8% 101% 65 3.43 V
2026-05-04 13:19:33 HAM2 1.76% 0.4% 94% 932589 4.11 V
2026-05-04 13:19:32 HAM2 1.76% 0.4% 94% 932589 4.11 V
2026-05-04 13:19:28 HAM2 1.76% 0.4% 94% 932589 4.11 V
2026-05-04 13:19:23 HAM2 1.76% 0.4% 94% 932589 4.11 V
2026-05-04 13:19:21 HAM2 1.76% 0.4% 94% 932589 4.11 V
2026-05-04 13:19:12 HAM2 1.76% 0.4% 94% 932589 4.11 V
2026-05-04 13:19:11 HAM2 1.76% 0.4% 94% 932589 4.11 V
2026-05-04 13:19:11 HAM2 1.76% 0.4% 94% 932589 4.11 V
2026-05-04 13:18:56 L1 2.84% 3.0% 101% 151096 4.24 V
2026-05-04 13:18:56 L1 2.84% 3.0% 101% 151096 4.24 V
2026-05-04 13:18:38 7274 0.34% 1.2% 100% 7527623 4.12 V
2026-05-04 13:18:37 7274 0.34% 1.2% 100% 7527623 4.12 V
2026-05-04 13:18:37 7274 0.34% 1.2% 100% 7527623 4.12 V
2026-05-04 13:15:50 RF67 0.03% 3.8% 101% 65 3.43 V
2026-05-04 13:15:50 RF67 0.03% 3.8% 101% 65 3.43 V
2026-05-04 13:15:50 RF67 0.03% 3.8% 101% 65 3.43 V
2026-05-04 13:14:27 LRX1 1.25% 8.7% 27% 103944 3.51 V
2026-05-04 13:14:24 LRX1 1.25% 8.7% 27% 103944 3.51 V
2026-05-04 13:14:22 LRX1 1.25% 8.7% 27% 103944 3.51 V
2026-05-04 13:14:21 LRX1 1.25% 8.7% 27% 103944 3.51 V
2026-05-04 13:14:21 LRX1 1.25% 8.7% 27% 103944 3.51 V
2026-05-04 13:14:20 LRX1 1.25% 8.7% 27% 103944 3.51 V
2026-05-04 13:13:50 DJMH 0.52% 0.0% 91% 6215800 4.07 V
2026-05-04 13:13:50 DJMH 0.52% 0.0% 91% 6215800 4.07 V
2026-05-04 13:12:30 RF67 0.03% 10.0% 101% 65 3.43 V
2026-05-04 13:12:29 RF06 1.18% 10.0% 101% 10986 6.31 V
2026-05-04 13:12:21 IIXF 854.59 hPa 27.97% 30.55°C 201.62 Ohm
2026-05-04 13:12:21 IIXF 854.59 hPa 27.97% 30.55°C 201.62 Ohm
2026-05-04 13:12:18 RF67 0.03% 10.0% 101% 65 3.43 V
2026-05-04 13:12:17 RF67 0.03% 10.0% 101% 65 3.43 V
2026-05-04 13:12:09 RF67 0.03% 10.0% 101% 65 3.43 V
2026-05-04 13:12:06 RF67 0.03% 10.0% 101% 65 3.43 V
2026-05-04 13:12:06 RF67 0.03% 10.0% 101% 65 3.43 V
2026-05-04 13:12:06 RF67 0.03% 10.0% 101% 65 3.43 V
2026-05-04 13:12:04 RF06 1.18% 10.0% 101% 10986 6.31 V
2026-05-04 13:12:04 RF06 1.18% 10.0% 101% 10986 6.31 V
2026-05-04 13:12:00 RF06 1.18% 10.0% 101% 10986 6.31 V
2026-05-04 13:12:00 RF06 1.18% 10.0% 101% 10986 6.31 V
2026-05-04 13:12:00 RF06 1.18% 10.0% 101% 10986 6.31 V
2026-05-04 13:11:57 IIXF 0.73% 1.8% 101% 9786 4.27 V
2026-05-04 13:11:56 IIXF 0.73% 1.8% 101% 9786 4.27 V
2026-05-04 13:10:29 ah03
2026-05-04 13:10:27 ah03
2026-05-04 13:10:25 ah03
2026-05-04 13:10:25 ah03
2026-05-04 13:10:24 ah03
2026-05-04 13:10:24 ah03
2026-05-04 13:10:06 SMWS 0.87% 6.6% 57% 526894 3.78 V
2026-05-04 13:10:06 SMWS 0.87% 6.6% 57% 526894 3.78 V
2026-05-04 13:07:57 RF67 0.03% 7.2% 101% 65 3.43 V
2026-05-04 13:07:54 RF67 0.03% 7.2% 101% 65 3.43 V
2026-05-04 13:07:54 RF67 0.03% 7.2% 101% 65 3.43 V
2026-05-04 13:07:51 RF67 0.03% 7.2% 101% 65 3.43 V
2026-05-04 13:07:49 RF67 0.03% 7.2% 101% 65 3.43 V
2026-05-04 13:07:49 RF67 0.03% 7.2% 101% 65 3.43 V
2026-05-04 13:07:49 RF67 0.03% 7.2% 101% 65 3.43 V
2026-05-04 13:07:10 2-D 0.44% 98% 12661959 4.17 V
2026-05-04 13:07:10 2-D 0.44% 98% 12661959 4.17 V
2026-05-04 13:06:44 JR70 0.27% 89% 5894303 4.05 V
2026-05-04 13:06:44 JR70 0.27% 89% 5894303 4.05 V
2026-05-04 13:05:23 RF02 1.57% 5.3% 101% 2498395 4.21 V
2026-05-04 13:05:22 RF02 1.57% 5.3% 101% 2498395 4.21 V
2026-05-04 13:05:15 RF02 1.57% 5.3% 101% 2498395 4.21 V
2026-05-04 13:05:15 RF02 1.57% 5.3% 101% 2498395 4.21 V
2026-05-04 13:05:14 RF02 1.57% 5.3% 101% 2498395 4.21 V
2026-05-04 13:04:06 RF67 0.03% 4.9% 101% 65 3.43 V
2026-05-04 13:04:06 RF67 0.03% 4.9% 101% 65 3.43 V
2026-05-04 13:04:06 RF67 0.03% 4.9% 101% 65 3.43 V
2026-05-04 13:02:12 PcL1 0.14% 0.0% 101% 67217 4.22 V
2026-05-04 13:02:12 PcL1 0.14% 0.0% 101% 67217 4.22 V
2026-05-04 13:00:17 RF67 0.03% 11.8% 101% 65 3.43 V
2026-05-04 13:00:17 RF67 0.03% 11.8% 101% 65 3.43 V
2026-05-04 13:00:17 RF67 0.03% 11.8% 101% 65 3.43 V
2026-05-04 12:58:48 MRB1 1.66% 0.0% 98% 28866 4.17 V
2026-05-04 12:58:47 MRB1 1.66% 0.0% 98% 28866 4.17 V
2026-05-04 12:58:02 LMGB 0.06% 0.0% 101% 15195 -0.0 V
2026-05-04 12:58:02 LMGB 0.06% 0.0% 101% 15195 -0.0 V
2026-05-04 12:56:31 RF67 0.03% 8.8% 101% 65 3.44 V
2026-05-04 12:56:31 RF67 0.03% 8.8% 101% 65 3.44 V
2026-05-04 12:56:31 RF67 0.03% 8.8% 101% 65 3.44 V
2026-05-04 12:54:21 IIXF 854.91 hPa 27.86% 30.55°C 203.11 Ohm
2026-05-04 12:54:21 IIXF 854.91 hPa 27.86% 30.55°C 203.11 Ohm
2026-05-04 12:54:06 PMT2 23.51°C
2026-05-04 12:54:05 PMT2 23.51°C
2026-05-04 12:54:05 PMT2 23.51°C
2026-05-04 12:54:04 PMT2 23.51°C
2026-05-04 12:53:56 IIXF 0.76% 2.4% 101% 8706 4.28 V
2026-05-04 12:53:56 IIXF 0.76% 2.4% 101% 8706 4.28 V
2026-05-04 12:53:47 Wdst 0.92% 72% 4110421 3.92 V
2026-05-04 12:53:47 Wdst 0.92% 72% 4110421 3.92 V
2026-05-04 12:53:46 Wdst 0.92% 72% 4110421 3.92 V
2026-05-04 12:53:39 PMT2 1.21% 0.0% 101% 2612409 4.2 V
2026-05-04 12:53:39 PMT2 1.21% 0.0% 101% 2612409 4.2 V
2026-05-04 12:53:38 PMT2 1.21% 0.0% 101% 2612409 4.2 V
2026-05-04 12:53:38 HT77 874.06 hPa 47.46% 28.38°C
2026-05-04 12:53:38 HT77 874.06 hPa 47.46% 28.38°C
2026-05-04 12:53:36 PMT2 1.21% 0.0% 101% 2612409 4.2 V
2026-05-04 12:53:36 PMT2 1.21% 0.0% 101% 2612409 4.2 V
2026-05-04 12:52:45 RF67 0.05% 11.6% 101% 65 3.44 V
2026-05-04 12:52:45 RF67 0.05% 11.6% 101% 65 3.44 V
2026-05-04 12:52:45 RF67 0.05% 11.6% 101% 65 3.44 V
2026-05-04 12:51:36 JR70 0.23% 3.0% 89% 5893399 4.05 V
2026-05-04 12:51:35 JR70 0.23% 3.0% 89% 5893399 4.05 V
2026-05-04 12:51:25 LMBr 2.15% 4.1% 94% 3592879 4.11 V
2026-05-04 12:51:25 LMBr 2.15% 4.1% 94% 3592879 4.11 V
2026-05-04 12:51:22 LMBr 2.15% 4.1% 94% 3592879 4.11 V
2026-05-04 12:51:22 SMWS 0.78% 0.0% 57% 525765 3.78 V
2026-05-04 12:51:22 LMBr 2.15% 4.1% 94% 3592879 4.11 V
2026-05-04 12:51:21 LMBr 2.15% 4.1% 94% 3592879 4.11 V
2026-05-04 12:51:21 SMWS 0.78% 0.0% 57% 525765 3.78 V
2026-05-04 12:51:21 LMBr 2.15% 4.1% 94% 3592879 4.11 V
2026-05-04 12:50:42 HT77 0.32% 2.1% 101% 705332 4.29 V
2026-05-04 12:50:42 HT77 0.32% 2.1% 101% 705332 4.29 V
2026-05-04 12:50:24 PTRH 0.17% 0.0% 58% 689343 3.78 V
2026-05-04 12:50:23 PTRH 0.17% 0.0% 58% 689343 3.78 V
2026-05-04 12:49:36 HAM2 1.45% 6.0% 94% 930788 4.11 V
2026-05-04 12:49:17 HAM2 1.45% 6.0% 94% 930788 4.11 V
2026-05-04 12:49:17 HAM2 1.45% 6.0% 94% 930788 4.11 V
2026-05-04 12:49:13 HAM2 1.45% 6.0% 94% 930788 4.11 V
2026-05-04 12:49:13 RF67 0.06% 7.9% 101% 65 3.45 V
2026-05-04 12:49:13 HAM2 1.45% 6.0% 94% 930788 4.11 V
2026-05-04 12:49:12 RF67 0.06% 7.9% 101% 65 3.45 V
2026-05-04 12:49:11 HAM2 1.45% 6.0% 94% 930788 4.11 V
2026-05-04 12:49:11 HAM2 1.45% 6.0% 94% 930788 4.11 V
2026-05-04 12:49:10 HAM2 1.45% 6.0% 94% 930788 4.11 V
2026-05-04 12:49:03 RF67 0.06% 7.9% 101% 65 3.45 V
2026-05-04 12:49:03 RF67 0.06% 7.9% 101% 65 3.45 V
2026-05-04 12:49:02 RF67 0.06% 7.9% 101% 65 3.45 V
2026-05-04 12:45:28 1ae9 26.26°C
2026-05-04 12:45:28 1ae9 26.26°C
2026-05-04 12:45:27 1ae9 26.26°C
2026-05-04 12:45:08 1ae9 26.26°C
2026-05-04 12:45:08 1ae9 26.26°C
2026-05-04 12:44:50 RX01 0.03% 3.2% 101% 75 0.0 V
2026-05-04 12:44:49 RX01 0.03% 3.2% 101% 75 0.0 V
2026-05-04 12:44:44 RF67 0.05% 15.4% 101% 65 3.44 V
2026-05-04 12:44:43 RF67 0.05% 15.4% 101% 65 3.44 V
2026-05-04 12:44:43 RF67 0.05% 15.4% 101% 65 3.44 V
2026-05-04 12:44:26 LRX1 1.3% 5.2% 28% 102143 3.51 V
2026-05-04 12:44:26 LRX1 1.3% 5.2% 28% 102143 3.51 V
2026-05-04 12:44:26 LRX1 1.3% 5.2% 28% 102143 3.51 V
2026-05-04 12:44:25 LRX1 1.3% 5.2% 28% 102143 3.51 V
2026-05-04 12:43:53 DJMH 0.61% 2.8% 91% 6214000 4.07 V
2026-05-04 12:43:52 DJMH 0.61% 2.8% 91% 6214000 4.07 V
2026-05-04 12:42:54 RF01 0.38% 8.6% 101% 146006 4.24 V
2026-05-04 12:42:50 RF01 0.38% 8.6% 101% 146006 4.24 V
2026-05-04 12:42:50 RF01 0.38% 8.6% 101% 146006 4.24 V
2026-05-04 12:42:50 RF01 0.38% 8.6% 101% 146006 4.24 V
2026-05-04 12:42:46 RF01 0.38% 8.6% 101% 146006 4.24 V
2026-05-04 12:42:46 RF01 0.38% 8.6% 101% 146006 4.24 V
2026-05-04 12:42:46 RF01 0.38% 8.6% 101% 146006 4.24 V
2026-05-04 12:42:37 7274 0.34% 1.2% 100% 7525463 4.12 V
2026-05-04 12:42:37 7274 0.34% 1.2% 100% 7525463 4.12 V
2026-05-04 12:42:37 7274 0.34% 1.2% 100% 7525463 4.12 V
2026-05-04 12:41:04 RF67 0.04% 14.4% 101% 65 3.44 V
2026-05-04 12:41:03 RF67 0.04% 14.4% 101% 65 3.44 V
2026-05-04 12:41:01 RF67 0.04% 14.4% 101% 65 3.44 V
2026-05-04 12:41:01 RF67 0.04% 14.4% 101% 65 3.44 V
2026-05-04 12:40:58 RF67 0.04% 14.4% 101% 65 3.44 V
2026-05-04 12:40:58 RF67 0.04% 14.4% 101% 65 3.44 V
2026-05-04 12:40:58 RF67 0.04% 14.4% 101% 65 3.44 V
2026-05-04 12:40:15 LRX1 1005.0 hPa 66.11% 21.64°C
2026-05-04 12:40:12 LRX1 1005.0 hPa 66.11% 21.64°C
2026-05-04 12:39:42 LRX1 1005.0 hPa 66.11% 21.64°C
2026-05-04 12:39:42 LRX1 1005.0 hPa 66.11% 21.64°C
2026-05-04 12:39:40 LRX1 1005.0 hPa 66.11% 21.64°C
2026-05-04 12:39:39 LRX1 1005.0 hPa 66.11% 21.64°C
2026-05-04 12:39:38 LRX1 1005.0 hPa 66.11% 21.64°C
2026-05-04 12:39:38 LRX1 1005.0 hPa 66.11% 21.64°C
2026-05-04 12:38:47 Wdst 1.04% 69% 4109521 3.88 V
2026-05-04 12:38:46 Wdst 1.04% 69% 4109521 3.88 V
2026-05-04 12:38:46 Wdst 1.04% 69% 4109521 3.88 V
2026-05-04 12:37:12 RF67 0.06% 13.0% 101% 65 3.44 V
2026-05-04 12:37:12 RF67 0.06% 13.0% 101% 65 3.44 V
2026-05-04 12:37:12 RF67 0.06% 13.0% 101% 65 3.44 V
2026-05-04 12:37:10 2-D 0.48% 3.5% 101% 12660159 4.24 V
2026-05-04 12:37:09 2-D 0.48% 3.5% 101% 12660159 4.24 V
2026-05-04 12:36:21 IIXF 855.25 hPa 28.62% 30.35°C 199.8 Ohm
2026-05-04 12:36:21 IIXF 855.25 hPa 28.62% 30.35°C 199.8 Ohm
2026-05-04 12:35:56 IIXF 0.75% 1.2% 101% 7626 4.28 V
2026-05-04 12:35:56 IIXF 0.75% 1.2% 101% 7626 4.28 V
2026-05-04 12:35:41 HT77 874.48 hPa 48.13% 28.59°C
2026-05-04 12:35:41 HT77 874.48 hPa 48.13% 28.59°C
2026-05-04 12:35:34 LMBt 0.33% 6.1% 55% 739284 3.76 V
2026-05-04 12:35:34 LMBt 0.33% 6.1% 55% 739284 3.76 V
2026-05-04 12:35:33 LMBt 0.33% 6.1% 55% 739284 3.76 V
2026-05-04 12:35:33 LMBt 0.33% 6.1% 55% 739284 3.76 V
2026-05-04 12:35:32 LMBt 0.33% 6.1% 55% 739284 3.76 V
2026-05-04 12:35:32 LMBt 0.33% 6.1% 55% 739284 3.76 V
2026-05-04 12:35:29 LMBt 0.33% 6.1% 55% 739284 3.76 V
2026-05-04 12:35:29 LMBt 0.33% 6.1% 55% 739284 3.76 V
2026-05-04 12:35:20 RF02 1.44% 3.2% 101% 2496594 4.21 V
2026-05-04 12:35:20 RF02 1.44% 3.2% 101% 2496594 4.21 V
2026-05-04 12:35:14 RF02 1.44% 3.2% 101% 2496594 4.21 V
2026-05-04 12:35:14 RF02 1.44% 3.2% 101% 2496594 4.21 V
2026-05-04 12:35:14 RF02 1.44% 3.2% 101% 2496594 4.21 V
2026-05-04 12:34:24 Jim1 1.11% 5.2% 78% 6569280 3.97 V
2026-05-04 12:34:24 Jim1 1.11% 5.2% 78% 6569280 3.97 V
2026-05-04 12:34:23 Jim1 1.11% 5.2% 78% 6569280 3.97 V
2026-05-04 12:34:23 Jim1 1.11% 5.2% 78% 6569280 3.97 V
2026-05-04 12:34:00 RF06 1.14% 8.2% 101% 8706 6.31 V
2026-05-04 12:34:00 RF06 1.14% 8.2% 101% 8706 6.31 V
2026-05-04 12:34:00 RF06 1.14% 8.2% 101% 8706 6.31 V
2026-05-04 12:33:24 LAM2 1.36% 17.1% 101% 104178 4.3 V
2026-05-04 12:33:22 LAM2 1.36% 17.1% 101% 104178 4.3 V
2026-05-04 12:33:16 RLSC 994.89 hPa 75.83% 17.37°C
2026-05-04 12:33:16 RLSC 994.89 hPa 75.83% 17.37°C
2026-05-04 12:33:03 LAM2 1.36% 17.1% 101% 104178 4.3 V
2026-05-04 12:33:01 LAM2 1.36% 17.1% 101% 104178 4.3 V
2026-05-04 12:33:01 LAM2 1.36% 17.1% 101% 104178 4.3 V
2026-05-04 12:33:01 LAM2 1.36% 17.1% 101% 104178 4.3 V
2026-05-04 12:33:01 LAM2 1.36% 17.1% 101% 104178 4.3 V
2026-05-04 12:32:56 RF67 0.08% 11.9% 101% 65 3.44 V
2026-05-04 12:32:56 RF67 0.08% 11.9% 101% 65 3.44 V
2026-05-04 12:32:56 RF67 0.08% 11.9% 101% 65 3.44 V
2026-05-04 12:32:55 LUK3 1.01% 2.2% 93% 14820607 4.1 V
2026-05-04 12:32:54 LUK3 1.01% 2.2% 93% 14820607 4.1 V
2026-05-04 12:32:48 ah01 1.7% 9.1% 94% 1669971 4.12 V
2026-05-04 12:32:48 ah01 1.7% 9.1% 94% 1669971 4.12 V
2026-05-04 12:32:47 SMWS 0.77% 0.0% 58% 524643 3.79 V
2026-05-04 12:32:47 SMWS 0.77% 0.0% 58% 524643 3.79 V
2026-05-04 12:32:46 ah01 1.7% 9.1% 94% 1669971 4.12 V
2026-05-04 12:32:45 ah01 1.7% 9.1% 94% 1669971 4.12 V
2026-05-04 12:32:45 ah01 1.7% 9.1% 94% 1669971 4.12 V
2026-05-04 12:32:42 SMWS 0.77% 0.0% 58% 524643 3.79 V
2026-05-04 12:32:42 SMWS 0.77% 0.0% 58% 524643 3.79 V
2026-05-04 12:32:25 ah01 1.7% 9.1% 94% 1669971 4.12 V
2026-05-04 12:32:24 ah01 1.7% 9.1% 94% 1669971 4.12 V
2026-05-04 12:32:10 MELK 0.17% 0.0% 96% 4063144 4.14 V
2026-05-04 12:32:10 MELK 0.17% 0.0% 96% 4063144 4.14 V
2026-05-04 12:32:04 MELK 0.17% 0.0% 96% 4063144 4.14 V
2026-05-04 12:32:04 MELK 0.17% 0.0% 96% 4063144 4.14 V
2026-05-04 12:31:42 MELK 0.17% 0.0% 96% 4063144 4.14 V
2026-05-04 12:31:42 MELK 0.17% 0.0% 96% 4063144 4.14 V
2026-05-04 12:31:41 MELK 0.17% 0.0% 96% 4063144 4.14 V
2026-05-04 12:31:40 MELK 0.17% 0.0% 96% 4063144 4.14 V
2026-05-04 12:31:40 MELK 0.17% 0.0% 96% 4063144 4.14 V
2026-05-04 12:31:19 LAM2 -200.22 hPa 100.0% 182.1°C
2026-05-04 12:31:17 LAM2 -200.22 hPa 100.0% 182.1°C
2026-05-04 12:31:04 LAM2 -200.22 hPa 100.0% 182.1°C
2026-05-04 12:31:04 LAM2 -200.22 hPa 100.0% 182.1°C
2026-05-04 12:31:01 LAM2 -200.22 hPa 100.0% 182.1°C
2026-05-04 12:31:00 LAM2 -200.22 hPa 100.0% 182.1°C
2026-05-04 12:31:00 LAM2 -200.22 hPa 100.0% 182.1°C
2026-05-04 12:31:00 LAM2 -200.22 hPa 100.0% 182.1°C
2026-05-04 12:30:52 ah03 1009.32 hPa 70.35% 19.55°C
2026-05-04 12:30:51 ah03 1009.32 hPa 70.35% 19.55°C
2026-05-04 12:30:51 ah03 1009.32 hPa 70.35% 19.55°C
2026-05-04 12:30:47 ah03 1009.32 hPa 70.35% 19.55°C
2026-05-04 12:30:47 ah03 1009.32 hPa 70.35% 19.55°C
2026-05-04 12:30:46 ah03 1009.32 hPa 70.35% 19.55°C
2026-05-04 12:29:17 LAM2 1.4% 6.4% 101% 89891 4.21 V
2026-05-04 12:29:17 LAM2 1.4% 6.4% 101% 89891 4.21 V
2026-05-04 12:29:11 RF67 0.03% 3.8% 101% 65 3.44 V
2026-05-04 12:29:10 RF67 0.03% 3.8% 101% 65 3.44 V
2026-05-04 12:29:10 RF67 0.03% 3.8% 101% 65 3.44 V
2026-05-04 12:26:05 PcL1 0.14% 0.0% 101% 65050 4.21 V
2026-05-04 12:26:05 PcL1 0.14% 0.0% 101% 65050 4.21 V
2026-05-04 12:25:25 RF67 0.03% 9.2% 101% 65 3.44 V
2026-05-04 12:25:24 RF67 0.03% 9.2% 101% 65 3.44 V
2026-05-04 12:25:24 RF67 0.03% 9.2% 101% 65 3.44 V
2026-05-04 12:24:07 PMT2 23.35°C
2026-05-04 12:24:06 PMT2 23.35°C
2026-05-04 12:24:05 PMT2 23.35°C
2026-05-04 12:24:04 PMT2 23.35°C
2026-05-04 12:23:54 PMT2 1.62% 5.3% 101% 2610609 4.2 V
2026-05-04 12:23:54 PMT2 1.62% 5.3% 101% 2610609 4.2 V
2026-05-04 12:23:54 PMT2 1.62% 5.3% 101% 2610609 4.2 V
2026-05-04 12:23:46 Wdst 0.96% 6.9% 72% 4108621 3.91 V
2026-05-04 12:23:46 Wdst 0.96% 6.9% 72% 4108621 3.91 V
2026-05-04 12:23:46 Wdst 0.96% 6.9% 72% 4108621 3.91 V
2026-05-04 12:23:37 PMT2 1.62% 5.3% 101% 2610609 4.2 V
2026-05-04 12:23:37 PMT2 1.62% 5.3% 101% 2610609 4.2 V
2026-05-04 12:23:18 ah02 52.56% 25.11°C
2026-05-04 12:23:17 ah02 52.56% 25.11°C
2026-05-04 12:23:16 ah02 52.56% 25.11°C
2026-05-04 12:23:14 ah02 52.56% 25.11°C
2026-05-04 12:23:13 ah02 52.56% 25.11°C
2026-05-04 12:23:13 ah02 52.56% 25.11°C
2026-05-04 12:23:13 ah02 52.56% 25.11°C
2026-05-04 12:22:52 ah02 0.04% 19.6% 68% 61 3.88 V
2026-05-04 12:22:51 ah02 0.04% 19.6% 68% 61 3.88 V
2026-05-04 12:22:51 ah02 0.04% 19.6% 68% 61 3.88 V
2026-05-04 12:22:49 ah02 0.04% 19.6% 68% 61 3.88 V
2026-05-04 12:22:49 ah02 0.04% 19.6% 68% 61 3.88 V
2026-05-04 12:22:02 LMGB 0.07% 0.0% 101% 13035 -0.0 V
2026-05-04 12:22:02 LMGB 0.07% 0.0% 101% 13035 -0.0 V
2026-05-04 12:21:44 RF67 0.03% 16.2% 101% 65 3.44 V
2026-05-04 12:21:44 RF67 0.03% 16.2% 101% 65 3.44 V
2026-05-04 12:21:39 RF67 0.03% 16.2% 101% 65 3.44 V
2026-05-04 12:21:38 RF67 0.03% 16.2% 101% 65 3.44 V
2026-05-04 12:21:38 RF67 0.03% 16.2% 101% 65 3.44 V
2026-05-04 12:21:26 JR70 0.09% 84% 5891593 4.01 V
2026-05-04 12:21:26 JR70 0.09% 84% 5891593 4.01 V
2026-05-04 12:20:27 LRX1 1.1% 0.0% 28% 100703 3.51 V
2026-05-04 12:20:27 LRX1 1.1% 0.0% 28% 100703 3.51 V
2026-05-04 12:20:21 e536 0.33% 0.0% 98% 47300380 4.16 V
2026-05-04 12:19:15 HAM2 1.19% 2.2% 94% 928988 4.11 V
2026-05-04 12:19:13 HAM2 1.19% 2.2% 94% 928988 4.11 V
2026-05-04 12:19:13 HAM2 1.19% 2.2% 94% 928988 4.11 V
2026-05-04 12:19:12 HAM2 1.19% 2.2% 94% 928988 4.11 V
2026-05-04 12:19:09 HAM2 1.19% 2.2% 94% 928988 4.11 V
2026-05-04 12:19:09 HAM2 1.19% 2.2% 94% 928988 4.11 V
2026-05-04 12:19:09 HAM2 1.19% 2.2% 94% 928988 4.11 V
2026-05-04 12:19:04 RX01 0.02% 0.0% 101% 38982 0.0 V
2026-05-04 12:19:04 RX01 0.02% 0.0% 101% 38982 0.0 V
2026-05-04 12:18:21 IIXF 855.51 hPa 29.12% 30.19°C 199.19 Ohm
2026-05-04 12:18:21 IIXF 855.51 hPa 29.12% 30.19°C 199.19 Ohm
2026-05-04 12:18:13 RF67 0.06% 15.4% 101% 65 3.44 V
2026-05-04 12:18:13 RF67 0.06% 15.4% 101% 65 3.44 V
2026-05-04 12:18:09 2369 0.85% 13.5% 7% 9066 3.25 V
2026-05-04 12:18:09 2369 0.85% 13.5% 7% 9066 3.25 V
2026-05-04 12:18:09 2369 0.85% 13.5% 7% 9066 3.25 V
2026-05-04 12:17:57 RF67 0.06% 15.4% 101% 65 3.44 V
2026-05-04 12:17:57 RF67 0.06% 15.4% 101% 65 3.44 V
2026-05-04 12:17:56 IIXF 0.75% 1.7% 101% 6546 4.27 V
2026-05-04 12:17:56 IIXF 0.75% 1.7% 101% 6546 4.27 V
2026-05-04 12:17:53 RF67 0.06% 15.4% 101% 65 3.44 V
2026-05-04 12:17:53 RF67 0.06% 15.4% 101% 65 3.44 V
2026-05-04 12:17:53 RF67 0.06% 15.4% 101% 65 3.44 V
2026-05-04 12:17:38 HT77 874.98 hPa 47.46% 29.29°C
2026-05-04 12:17:38 HT77 874.98 hPa 47.46% 29.29°C
2026-05-04 12:16:39 ah03 0.56% 11.4% 71% 1255213 3.9 V
2026-05-04 12:16:38 ah03 0.56% 11.4% 71% 1255213 3.9 V
2026-05-04 12:14:41 HT77 0.31% 4.3% 101% 703171 4.29 V
2026-05-04 12:14:41 HT77 0.31% 4.3% 101% 703171 4.29 V
2026-05-04 12:14:23 PTRH 0.13% 0.0% 54% 687183 3.76 V
2026-05-04 12:14:23 PTRH 0.13% 0.0% 54% 687183 3.76 V
2026-05-04 12:14:07 RF67 0.05% 8.3% 101% 65 3.44 V
2026-05-04 12:14:07 RF67 0.05% 8.3% 101% 65 3.44 V
2026-05-04 12:14:07 RF67 0.05% 8.3% 101% 65 3.44 V
2026-05-04 12:13:53 DJMH 0.54% 1.1% 91% 6212200 4.08 V
2026-05-04 12:13:52 DJMH 0.54% 1.1% 91% 6212200 4.08 V
2026-05-04 12:10:23 RF67 0.03% 11.4% 101% 65 3.44 V
2026-05-04 12:10:23 RF67 0.03% 11.4% 101% 65 3.44 V
2026-05-04 12:10:23 RF67 0.03% 11.4% 101% 65 3.44 V
2026-05-04 12:10:09 1ae9 25.94°C
2026-05-04 12:10:09 1ae9 25.94°C
2026-05-04 12:09:46 ah03
2026-05-04 12:09:45 ah03
2026-05-04 12:09:39 ah03
2026-05-04 12:09:38 ah03
2026-05-04 12:09:38 ah03
2026-05-04 12:08:58 Wdst 1.02% 7.5% 72% 4107720 3.91 V
2026-05-04 12:08:58 Wdst 1.02% 7.5% 72% 4107720 3.91 V
2026-05-04 12:08:58 Wdst 1.02% 7.5% 72% 4107720 3.91 V
2026-05-04 12:07:10 2-D 0.45% 101% 12658359 4.23 V
2026-05-04 12:07:09 2-D 0.45% 101% 12658359 4.23 V
2026-05-04 12:06:37 7274 0.35% 0.0% 100% 7523303 4.12 V
2026-05-04 12:06:37 RF67 0.03% 16.7% 101% 65 3.44 V
2026-05-04 12:06:37 7274 0.35% 0.0% 100% 7523303 4.12 V
2026-05-04 12:06:37 7274 0.35% 0.0% 100% 7523303 4.12 V
2026-05-04 12:06:37 RF67 0.03% 16.7% 101% 65 3.44 V
2026-05-04 12:06:37 RF67 0.03% 16.7% 101% 65 3.44 V
2026-05-04 12:02:50 RF67 0.08% 7.8% 101% 65 3.44 V
2026-05-04 12:02:50 RF67 0.08% 7.8% 101% 65 3.44 V
2026-05-04 12:02:50 RF67 0.08% 7.8% 101% 65 3.44 V
2026-05-04 12:02:14 RF02 1.51% 7.2% 101% 2494614 4.22 V
2026-05-04 12:02:14 RF02 1.51% 7.2% 101% 2494614 4.22 V
2026-05-04 12:02:14 RF02 1.51% 7.2% 101% 2494614 4.22 V
2026-05-04 12:01:43 MELK 0.25% 0.0% 96% 4061344 4.14 V
2026-05-04 12:01:43 MELK 0.25% 0.0% 96% 4061344 4.14 V
2026-05-04 12:01:42 MELK 0.25% 0.0% 96% 4061344 4.14 V
2026-05-04 12:01:42 MELK 0.25% 0.0% 96% 4061344 4.14 V
2026-05-04 12:01:40 MELK 0.25% 0.0% 96% 4061344 4.14 V
2026-05-04 12:01:40 MELK 0.25% 0.0% 96% 4061344 4.14 V
2026-05-04 12:01:40 MELK 0.25% 0.0% 96% 4061344 4.14 V
2026-05-04 12:01:06 RF06 1.17% 3.4% 101% 6726 6.31 V
2026-05-04 12:01:04 RF06 1.17% 3.4% 101% 6726 6.31 V
2026-05-04 12:01:04 RF06 1.17% 3.4% 101% 6726 6.31 V
2026-05-04 12:01:04 RF06 1.17% 3.4% 101% 6726 6.31 V
2026-05-04 12:01:02 RF06 1.17% 3.4% 101% 6726 6.31 V
2026-05-04 12:01:00 RF06 1.17% 3.4% 101% 6726 6.31 V
2026-05-04 12:01:00 RF06 1.17% 3.4% 101% 6726 6.31 V
2026-05-04 12:01:00 RF06 1.17% 3.4% 101% 6726 6.31 V
2026-05-04 12:00:21 IIXF 855.88 hPa 29.23% 30.07°C 195.66 Ohm
2026-05-04 12:00:21 IIXF 855.88 hPa 29.23% 30.07°C 195.66 Ohm
2026-05-04 11:59:56 IIXF 0.72% 0.0% 101% 5466 4.27 V
2026-05-04 11:59:56 IIXF 0.72% 0.0% 101% 5466 4.27 V
2026-05-04 11:59:45 ah03 1009.38 hPa 78.04% 18.43°C
2026-05-04 11:59:45 ah03 1009.38 hPa 78.04% 18.43°C
2026-05-04 11:59:45 ah03 1009.38 hPa 78.04% 18.43°C
2026-05-04 11:59:44 ah03 1009.38 hPa 78.04% 18.43°C
2026-05-04 11:59:44 ah03 1009.38 hPa 78.04% 18.43°C
2026-05-04 11:59:39 HT77 875.2 hPa 47.51% 30.21°C
2026-05-04 11:59:38 HT77 875.2 hPa 47.51% 30.21°C
2026-05-04 11:59:04 RF67 0.03% 10.8% 101% 65 3.44 V
2026-05-04 11:59:04 RF67 0.03% 10.8% 101% 65 3.44 V
2026-05-04 11:59:04 RF67 0.03% 10.8% 101% 65 3.44 V
2026-05-04 11:56:24 LRX1 1.26% 6.5% 28% 99263 3.52 V
2026-05-04 11:56:24 LRX1 1.26% 6.5% 28% 99263 3.52 V
2026-05-04 11:56:22 LRX1 1.26% 6.5% 28% 99263 3.52 V
2026-05-04 11:56:22 LRX1 1.26% 6.5% 28% 99263 3.52 V
2026-05-04 11:56:21 LRX1 1.26% 6.5% 28% 99263 3.52 V
2026-05-04 11:56:21 LRX1 1.26% 6.5% 28% 99263 3.52 V
2026-05-04 11:56:21 LRX1 1.26% 6.5% 28% 99263 3.52 V
2026-05-04 11:55:43 SMWS 0.69% 0.0% 58% 522413 3.79 V
2026-05-04 11:55:42 SMWS 0.69% 0.0% 58% 522413 3.79 V
2026-05-04 11:55:18 RF67 0.06% 15.2% 101% 65 3.44 V
2026-05-04 11:55:18 RF67 0.06% 15.2% 101% 65 3.44 V
2026-05-04 11:55:18 RF67 0.06% 15.2% 101% 65 3.44 V
2026-05-04 11:54:24 PMT2 23.5°C
2026-05-04 11:54:24 PMT2 23.5°C
2026-05-04 11:54:16 PMT2 23.5°C
2026-05-04 11:54:14 PMT2 23.5°C
2026-05-04 11:54:13 PMT2 23.5°C
2026-05-04 11:53:48 Wdst 0.96% 11.6% 72% 4106820 3.91 V
2026-05-04 11:53:47 Wdst 0.96% 11.6% 72% 4106820 3.91 V
2026-05-04 11:53:47 Wdst 0.96% 11.6% 72% 4106820 3.91 V
2026-05-04 11:52:25 CHKV 1.76% 11.8% 98% 8821675 4.18 V
2026-05-04 11:51:42 RF67 0.08% 18.8% 101% 65 3.44 V
2026-05-04 11:51:41 RF67 0.08% 18.8% 101% 65 3.44 V
2026-05-04 11:51:33 LMBr 2.26% 17.7% 93% 3589279 4.1 V
2026-05-04 11:51:33 RF67 0.08% 18.8% 101% 65 3.44 V
2026-05-04 11:51:32 RF67 0.08% 18.8% 101% 65 3.44 V
2026-05-04 11:51:32 RF67 0.08% 18.8% 101% 65 3.44 V
2026-05-04 11:51:22 LMBr 2.26% 17.7% 93% 3589279 4.1 V
2026-05-04 11:51:22 LMBr 2.26% 17.7% 93% 3589279 4.1 V
2026-05-04 11:51:21 LMBr 2.26% 17.7% 93% 3589279 4.1 V
2026-05-04 11:51:21 LMBr 2.26% 17.7% 93% 3589279 4.1 V
2026-05-04 11:50:01 CLA1 3.78% 21.3% 101% 517599 4.11 V
2026-05-04 11:50:01 CLA1 3.78% 21.3% 101% 517599 4.11 V
2026-05-04 11:49:56 PcL1 0.11% 0.0% 101% 62881 4.22 V
2026-05-04 11:49:56 PcL1 0.11% 0.0% 101% 62881 4.22 V
2026-05-04 11:49:54 ZS1G 0.03% 8.2% 101% 46 4.22 V
2026-05-04 11:49:54 ZS1G 0.03% 8.2% 101% 46 4.22 V
2026-05-04 11:49:50 ZS1G 0.03% 8.2% 101% 46 4.22 V
2026-05-04 11:49:50 ZS1G 0.03% 8.2% 101% 46 4.22 V
2026-05-04 11:49:46 MRB1 1.9% 24.1% 101% 24722 4.24 V
2026-05-04 11:49:46 MRB1 1.9% 24.1% 101% 24722 4.24 V
2026-05-04 11:49:39 CLA1 3.78% 21.3% 101% 517599 4.11 V
2026-05-04 11:49:39 CLA1 3.78% 21.3% 101% 517599 4.11 V
2026-05-04 11:49:38 CLA1 3.78% 21.3% 101% 517599 4.11 V
2026-05-04 11:49:11 ZS1G 0.03% 8.2% 101% 46 4.22 V
2026-05-04 11:49:10 ZS1G 0.03% 8.2% 101% 46 4.22 V
2026-05-04 11:49:09 ZS1G 0.03% 8.2% 101% 46 4.22 V
2026-05-04 11:48:27 2369 1.01% 15.0% 7% 7266 3.26 V
2026-05-04 11:48:27 2369 1.01% 15.0% 7% 7266 3.26 V
2026-05-04 11:48:15 2369 1.01% 15.0% 7% 7266 3.26 V
2026-05-04 11:48:15 2369 1.01% 15.0% 7% 7266 3.26 V
2026-05-04 11:48:11 2369 1.01% 15.0% 7% 7266 3.26 V
2026-05-04 11:48:09 DOS 1.76% 0.0% 101% 6542 4.23 V
2026-05-04 11:48:09 2369 1.01% 15.0% 7% 7266 3.26 V
2026-05-04 11:48:09 2369 1.01% 15.0% 7% 7266 3.26 V
2026-05-04 11:48:09 2369 1.01% 15.0% 7% 7266 3.26 V
2026-05-04 11:48:07 DOS 1.76% 0.0% 101% 6542 4.23 V
2026-05-04 11:48:03 DOS 1.76% 0.0% 101% 6542 4.23 V
2026-05-04 11:48:03 DOS 1.76% 0.0% 101% 6542 4.23 V
2026-05-04 11:47:58 DOS 1.76% 0.0% 101% 6542 4.23 V
2026-05-04 11:47:57 DOS 1.76% 0.0% 101% 6542 4.23 V
2026-05-04 11:47:57 DOS 1.76% 0.0% 101% 6542 4.23 V
2026-05-04 11:47:47 RF67 0.03% 14.8% 101% 65 3.44 V
2026-05-04 11:47:47 RF67 0.03% 14.8% 101% 65 3.44 V
2026-05-04 11:47:47 RF67 0.03% 14.8% 101% 65 3.44 V
2026-05-04 11:47:32 976c 0.78% 0.0% 101% 4407948 4.22 V
2026-05-04 11:47:31 976c 0.78% 0.0% 101% 4407948 4.22 V
2026-05-04 11:46:23 ah03 0.54% 20.0% 69% 1253377 3.89 V
2026-05-04 11:46:10 ah03 0.54% 20.0% 69% 1253377 3.89 V
2026-05-04 11:46:10 ah03 0.54% 20.0% 69% 1253377 3.89 V
2026-05-04 11:46:05 ah03 0.54% 20.0% 69% 1253377 3.89 V
2026-05-04 11:46:04 ah03 0.54% 20.0% 69% 1253377 3.89 V
2026-05-04 11:46:04 ah03 0.54% 20.0% 69% 1253377 3.89 V
2026-05-04 11:46:02 LMGB 0.07% 0.7% 101% 10875 -0.0 V
2026-05-04 11:46:01 LMGB 0.07% 0.7% 101% 10875 -0.0 V
2026-05-04 11:44:30 BB04 1.1% 3.0% 101% 62014 -0.0 V
2026-05-04 11:44:30 BB04 1.1% 3.0% 101% 62014 -0.0 V
2026-05-04 11:44:30 BB04 1.1% 3.0% 101% 62014 -0.0 V
2026-05-04 11:44:25 BB04 1.1% 3.0% 101% 62014 -0.0 V
2026-05-04 11:44:24 BB04 1.1% 3.0% 101% 62014 -0.0 V
2026-05-04 11:44:24 BB04 1.1% 3.0% 101% 62014 -0.0 V
2026-05-04 11:44:05 RF67 0.05% 14.9% 101% 65 3.44 V
2026-05-04 11:44:05 RF67 0.05% 14.9% 101% 65 3.44 V
2026-05-04 11:44:01 RF67 0.05% 14.9% 101% 65 3.44 V
2026-05-04 11:44:00 RF67 0.05% 14.9% 101% 65 3.44 V
2026-05-04 11:44:00 RF67 0.05% 14.9% 101% 65 3.44 V
2026-05-04 11:43:53 DJMH 0.47% 0.0% 91% 6210399 4.08 V
2026-05-04 11:43:53 DJMH 0.47% 0.0% 91% 6210399 4.08 V
2026-05-04 11:43:03 RX01 0.05% 0.0% 101% 36821 0.0 V
2026-05-04 11:43:02 RX01 0.05% 0.0% 101% 36821 0.0 V
2026-05-04 11:42:21 IIXF 856.02 hPa 29.83% 29.96°C 190.8 Ohm
2026-05-04 11:42:21 IIXF 856.02 hPa 29.83% 29.96°C 190.8 Ohm
2026-05-04 11:41:56 IIXF 0.69% 1.2% 101% 4386 4.27 V
2026-05-04 11:41:56 IIXF 0.69% 1.2% 101% 4386 4.27 V
2026-05-04 11:40:15 RF67 0.03% 5.7% 101% 65 3.44 V
2026-05-04 11:40:15 RF67 0.03% 5.7% 101% 65 3.44 V
2026-05-04 11:40:15 RF67 0.03% 5.7% 101% 65 3.44 V
2026-05-04 11:39:03 ah03
2026-05-04 11:39:02 ah03
2026-05-04 11:39:02 ah03
2026-05-04 11:38:59 ah03
2026-05-04 11:38:58 ah03
2026-05-04 11:38:58 ah03
2026-05-04 11:38:46 Wdst 1.07% 72% 4105919 3.91 V
2026-05-04 11:38:46 Wdst 1.07% 72% 4105919 3.91 V
2026-05-04 11:38:46 Wdst 1.07% 72% 4105919 3.91 V
2026-05-04 11:38:40 HT77 0.25% 0.0% 101% 701011 4.29 V
2026-05-04 11:38:40 HT77 0.25% 0.0% 101% 701011 4.29 V
2026-05-04 11:38:23 PTRH 0.22% 0.0% 59% 685023 3.8 V
2026-05-04 11:38:23 PTRH 0.22% 0.0% 59% 685023 3.8 V
2026-05-04 11:37:12 SMWS 0.72% 1.9% 58% 521300 3.78 V
2026-05-04 11:37:12 SMWS 0.72% 1.9% 58% 521300 3.78 V
2026-05-04 11:37:10 2-D 0.71% 100% 12656558 4.2 V
2026-05-04 11:37:10 2-D 0.71% 100% 12656558 4.2 V
2026-05-04 11:36:29 RF67 0.05% 9.2% 101% 65 3.44 V
2026-05-04 11:36:29 RF67 0.05% 9.2% 101% 65 3.44 V
2026-05-04 11:36:29 RF67 0.05% 9.2% 101% 65 3.44 V
2026-05-04 11:36:19 JR70 0.16% 90% 5888884 4.06 V
2026-05-04 11:36:19 JR70 0.16% 90% 5888884 4.06 V
2026-05-04 11:35:33 LMBt 0.24% 1.9% 57% 735684 3.78 V
2026-05-04 11:35:33 LMBt 0.24% 1.9% 57% 735684 3.78 V
2026-05-04 11:35:33 LMBt 0.24% 1.9% 57% 735684 3.78 V
2026-05-04 11:35:29 LMBt 0.24% 1.9% 57% 735684 3.78 V
2026-05-04 11:35:29 LMBt 0.24% 1.9% 57% 735684 3.78 V
2026-05-04 11:34:22 Jim1 1.45% 0.0% 76% 6565679 3.96 V
2026-05-04 11:34:21 Jim1 1.45% 0.0% 76% 6565679 3.96 V
2026-05-04 11:34:20 Jim1 1.45% 0.0% 76% 6565679 3.96 V
2026-05-04 11:34:19 Jim1 1.45% 0.0% 76% 6565679 3.96 V
2026-05-04 11:34:18 Jim1 1.45% 0.0% 76% 6565679 3.96 V
2026-05-04 11:34:11 6b46 0.34% 0.0% 52% 2224718 3.74 V
2026-05-04 11:34:11 6b46 0.34% 0.0% 52% 2224718 3.74 V
2026-05-04 11:32:43 RF67 0.08% 13.5% 101% 65 3.44 V
2026-05-04 11:32:43 RF67 0.08% 13.5% 101% 65 3.44 V
2026-05-04 11:32:43 RF67 0.08% 13.5% 101% 65 3.44 V
2026-05-04 11:32:33 ah01 2.12% 8.4% 94% 1666368 4.12 V
2026-05-04 11:32:32 ah01 2.12% 8.4% 94% 1666368 4.12 V
2026-05-04 11:32:22 ah01 2.12% 8.4% 94% 1666368 4.12 V
2026-05-04 11:32:22 ah01 2.12% 8.4% 94% 1666368 4.12 V
2026-05-04 11:32:21 ah01 2.12% 8.4% 94% 1666368 4.12 V
2026-05-04 11:32:15 RF02 1.8% 10.7% 101% 2492814 4.22 V
2026-05-04 11:32:14 RF02 1.8% 10.7% 101% 2492814 4.22 V
2026-05-04 11:32:14 RF02 1.8% 10.7% 101% 2492814 4.22 V
2026-05-04 11:31:47 MELK 0.1% 0.0% 96% 4059544 4.14 V
2026-05-04 11:31:45 MELK 0.1% 0.0% 96% 4059544 4.14 V
2026-05-04 11:31:45 MELK 0.1% 0.0% 96% 4059544 4.14 V
2026-05-04 11:31:45 MELK 0.1% 0.0% 96% 4059544 4.14 V
2026-05-04 11:31:40 MELK 0.1% 0.0% 96% 4059544 4.14 V
2026-05-04 11:31:40 MELK 0.1% 0.0% 96% 4059544 4.14 V
2026-05-04 11:31:40 MELK 0.1% 0.0% 96% 4059544 4.14 V
2026-05-04 11:31:06 RF06 1.25% 3.4% 101% 4926 6.31 V
2026-05-04 11:31:06 RF06 1.25% 3.4% 101% 4926 6.31 V
2026-05-04 11:31:04 RF06 1.25% 3.4% 101% 4926 6.31 V
2026-05-04 11:31:01 RF06 1.25% 3.4% 101% 4926 6.31 V
2026-05-04 11:31:00 RF06 1.25% 3.4% 101% 4926 6.31 V
2026-05-04 11:31:00 RF06 1.25% 3.4% 101% 4926 6.31 V
2026-05-04 11:31:00 RF06 1.25% 3.4% 101% 4926 6.31 V
2026-05-04 11:30:37 7274 0.36% 0.0% 100% 7521143 4.12 V
2026-05-04 11:30:37 7274 0.36% 0.0% 100% 7521143 4.12 V
2026-05-04 11:30:37 7274 0.36% 0.0% 100% 7521143 4.12 V
2026-05-04 11:28:58 RF67 0.05% 12.8% 101% 65 3.44 V
2026-05-04 11:28:57 RF67 0.05% 12.8% 101% 65 3.44 V
2026-05-04 11:28:57 RF67 0.05% 12.8% 101% 65 3.44 V
2026-05-04 11:28:53 ah03 1009.3 hPa 81.82% 18.27°C
2026-05-04 11:28:53 ah03 1009.3 hPa 81.82% 18.27°C
2026-05-04 11:28:50 ah03 1009.3 hPa 81.82% 18.27°C
2026-05-04 11:28:50 ah03 1009.3 hPa 81.82% 18.27°C
2026-05-04 11:28:50 LUK5 1.87% 2.0% 101% 82269 4.29 V
2026-05-04 11:28:50 ah03 1009.3 hPa 81.82% 18.27°C
2026-05-04 11:28:49 LUK5 1.87% 2.0% 101% 82269 4.29 V
2026-05-04 11:28:46 ah03 1009.3 hPa 81.82% 18.27°C
2026-05-04 11:28:45 ah03 1009.3 hPa 81.82% 18.27°C
2026-05-04 11:28:45 ah03 1009.3 hPa 81.82% 18.27°C
2026-05-04 11:28:42 RF01 0.45% 12.9% 101% 141562 4.2 V
2026-05-04 11:28:42 RF01 0.45% 12.9% 101% 141562 4.2 V
2026-05-04 11:28:42 RF01 0.45% 12.9% 101% 141562 4.2 V
2026-05-04 11:28:16 RLSC 994.78 hPa 77.04% 15.95°C
2026-05-04 11:28:16 RLSC 994.78 hPa 77.04% 15.95°C
2026-05-04 11:25:16 RF67 0.08% 13.4% 101% 65 3.44 V
2026-05-04 11:25:16 RF67 0.08% 13.4% 101% 65 3.44 V
2026-05-04 11:25:16 RF67 0.08% 13.4% 101% 65 3.44 V
2026-05-04 11:25:12 RF67 0.08% 13.4% 101% 65 3.44 V
2026-05-04 11:25:12 RF67 0.08% 13.4% 101% 65 3.44 V
2026-05-04 11:25:11 RF67 0.08% 13.4% 101% 65 3.44 V
2026-05-04 11:24:21 IIXF 856.21 hPa 30.29% 29.92°C 186.6 Ohm
2026-05-04 11:24:20 IIXF 856.21 hPa 30.29% 29.92°C 186.6 Ohm
2026-05-04 11:24:13 PMT2 23.22°C
2026-05-04 11:24:13 PMT2 23.22°C
2026-05-04 11:24:10 PMT2 23.22°C
2026-05-04 11:24:10 PMT2 23.22°C
2026-05-04 11:24:05 PMT2 23.22°C
2026-05-04 11:24:05 PMT2 23.22°C
2026-05-04 11:23:56 IIXF 0.63% 1.2% 101% 3306 4.28 V
2026-05-04 11:23:55 IIXF 0.63% 1.2% 101% 3306 4.28 V
2026-05-04 11:23:46 Wdst 1.31% 72% 4105019 3.91 V
2026-05-04 11:23:45 Wdst 1.31% 72% 4105019 3.91 V
2026-05-04 11:23:45 Wdst 1.31% 72% 4105019 3.91 V
2026-05-04 11:23:43 PMT2 2.41% 4.6% 101% 2607008 4.2 V
2026-05-04 11:23:42 PMT2 2.41% 4.6% 101% 2607008 4.2 V
2026-05-04 11:23:37 HT77 875.7 hPa 47.38% 33.25°C
2026-05-04 11:23:37 HT77 875.7 hPa 47.38% 33.25°C
2026-05-04 11:23:35 PMT2 2.41% 4.6% 101% 2607008 4.2 V
2026-05-04 11:23:35 PMT2 2.41% 4.6% 101% 2607008 4.2 V
2026-05-04 11:22:14 6DAB 0.02% 8.4% 101% 45 4.21 V
2026-05-04 11:22:13 6DAB 0.02% 8.4% 101% 45 4.21 V
2026-05-04 11:21:26 RF67 0.06% 13.4% 101% 65 3.44 V
2026-05-04 11:21:26 RF67 0.06% 13.4% 101% 65 3.44 V
2026-05-04 11:21:26 RF67 0.06% 13.4% 101% 65 3.44 V
2026-05-04 11:21:00 ah02 75.49% 22.97°C
2026-05-04 11:20:58 ah02 75.49% 22.97°C
2026-05-04 11:20:58 ah02 75.49% 22.97°C
2026-05-04 11:20:53 ah02 75.49% 22.97°C
2026-05-04 11:20:53 ah02 75.49% 22.97°C
2026-05-04 11:20:45 HT77 0.23% 0.0% 101% 699931 4.3 V
2026-05-04 11:20:45 HT77 0.23% 0.0% 101% 699931 4.3 V
2026-05-04 11:20:44 LMBs 23.62°C
2026-05-04 11:20:44 LMBs 23.62°C
2026-05-04 11:20:31 ah02 0.04% 12.9% 68% 61 3.88 V
2026-05-04 11:20:31 ah02 0.04% 12.9% 68% 61 3.88 V
2026-05-04 11:20:28 ah02 0.04% 12.9% 68% 61 3.88 V
2026-05-04 11:20:28 ah02 0.04% 12.9% 68% 61 3.88 V
2026-05-04 11:20:27 ah02 0.04% 12.9% 68% 61 3.88 V
2026-05-04 11:19:28 HAM2 0.82% 0.0% 94% 925388 4.11 V
2026-05-04 11:19:11 HAM2 0.82% 0.0% 94% 925388 4.11 V
2026-05-04 11:19:11 HAM2 0.82% 0.0% 94% 925388 4.11 V
2026-05-04 11:19:10 HAM2 0.82% 0.0% 94% 925388 4.11 V
2026-05-04 11:19:09 HAM2 0.82% 0.0% 94% 925388 4.11 V
2026-05-04 11:19:09 HAM2 0.82% 0.0% 94% 925388 4.11 V
2026-05-04 11:18:43 SMWS 0.73% 0.0% 57% 520180 3.78 V
2026-05-04 11:18:42 SMWS 0.73% 0.0% 57% 520180 3.78 V
2026-05-04 11:18:24 2369 0.85% 7.0% 8% 5466 3.28 V
2026-05-04 11:18:13 2369 0.85% 7.0% 8% 5466 3.28 V
2026-05-04 11:18:13 2369 0.85% 7.0% 8% 5466 3.28 V
2026-05-04 11:18:11 2369 0.85% 7.0% 8% 5466 3.28 V
2026-05-04 11:18:09 2369 0.85% 7.0% 8% 5466 3.28 V
2026-05-04 11:18:09 2369 0.85% 7.0% 8% 5466 3.28 V
2026-05-04 11:18:09 2369 0.85% 7.0% 8% 5466 3.28 V
2026-05-04 11:17:40 RF67 0.07% 16.7% 101% 65 3.44 V
2026-05-04 11:17:40 RF67 0.07% 16.7% 101% 65 3.44 V
2026-05-04 11:17:40 RF67 0.07% 16.7% 101% 65 3.44 V
2026-05-04 11:15:06 ah03 0.53% 23.0% 70% 1251508 3.89 V
2026-05-04 11:15:06 ah03 0.53% 23.0% 70% 1251508 3.89 V
2026-05-04 11:15:06 ah03 0.53% 23.0% 70% 1251508 3.89 V
2026-05-04 11:14:58 ah03 0.53% 23.0% 70% 1251508 3.89 V
2026-05-04 11:14:57 ah03 0.53% 23.0% 70% 1251508 3.89 V
2026-05-04 11:14:57 ah03 0.53% 23.0% 70% 1251508 3.89 V
2026-05-04 11:14:01 RF67 0.08% 16.2% 101% 65 3.44 V
2026-05-04 11:14:01 RF67 0.08% 16.2% 101% 65 3.44 V
2026-05-04 11:13:55 RF67 0.08% 16.2% 101% 65 3.44 V
2026-05-04 11:13:55 RF67 0.08% 16.2% 101% 65 3.44 V
2026-05-04 11:13:54 RF67 0.08% 16.2% 101% 65 3.44 V
2026-05-04 11:13:49 PcL1 0.11% 0.0% 101% 60714 4.24 V
2026-05-04 11:13:49 PcL1 0.11% 0.0% 101% 60714 4.24 V
2026-05-04 11:10:18 RF67 0.1% 14.8% 101% 65 3.44 V
2026-05-04 11:10:10 RF67 0.1% 14.8% 101% 65 3.44 V
2026-05-04 11:10:09 RF67 0.1% 14.8% 101% 65 3.44 V
2026-05-04 11:10:08 RF67 0.1% 14.8% 101% 65 3.44 V
2026-05-04 11:10:08 RF67 0.1% 14.8% 101% 65 3.44 V
2026-05-04 11:09:48 LMGB 0.06% 0.0% 101% 8702 -0.0 V
2026-05-04 11:09:48 LMGB 0.06% 0.0% 101% 8702 -0.0 V
2026-05-04 11:09:27 tge0 3.2% 9.3% 4% 13504130 3.19 V
2026-05-04 11:09:26 tge0 3.2% 9.3% 4% 13504130 3.19 V
2026-05-04 11:09:24 tge0 3.2% 9.3% 4% 13504130 3.19 V
2026-05-04 11:09:24 tge0 3.2% 9.3% 4% 13504130 3.19 V
2026-05-04 11:09:24 tge0 3.2% 9.3% 4% 13504130 3.19 V
2026-05-04 11:09:24 tge0 3.2% 9.3% 4% 13504130 3.19 V
2026-05-04 11:09:24 tge0 3.2% 9.3% 4% 13504130 3.19 V
2026-05-04 11:08:51 ah03
2026-05-04 11:08:51 ah03
2026-05-04 11:08:43 Wdst 1.19% 3.3% 72% 4104119 3.91 V
2026-05-04 11:08:43 Wdst 1.19% 3.3% 72% 4104119 3.91 V
2026-05-04 11:08:43 Wdst 1.19% 3.3% 72% 4104119 3.91 V
2026-05-04 11:07:18 e536 0.64% 3.9% 97% 47295999 4.16 V
2026-05-04 11:07:15 2-D 0.67% 101% 12654758 4.22 V
2026-05-04 11:07:14 2-D 0.67% 101% 12654758 4.22 V
2026-05-04 11:07:01 RX01 0.07% 0.0% 101% 34659 0.0 V
2026-05-04 11:07:01 RX01 0.07% 0.0% 101% 34659 0.0 V
2026-05-04 11:06:23 RF67 0.03% 4.7% 101% 65 3.44 V
2026-05-04 11:06:22 RF67 0.03% 4.7% 101% 65 3.44 V
2026-05-04 11:06:22 RF67 0.03% 4.7% 101% 65 3.44 V
2026-05-04 11:06:21 IIXF 856.39 hPa 30.7% 29.89°C 181.76 Ohm
2026-05-04 11:06:20 IIXF 856.39 hPa 30.7% 29.89°C 181.76 Ohm
2026-05-04 11:06:12 JR70 0.21% 88% 5887078 4.04 V
2026-05-04 11:06:12 JR70 0.21% 88% 5887078 4.04 V
2026-05-04 11:05:56 IIXF 0.41% 1.6% 101% 2226 4.28 V
2026-05-04 11:05:55 IIXF 0.41% 1.6% 101% 2226 4.28 V
2026-05-04 11:05:41 HT77 875.85 hPa 44.89% 36.47°C
2026-05-04 11:05:41 HT77 875.85 hPa 44.89% 36.47°C
2026-05-04 11:03:00 RF67 0.05% 11.9% 101% 65 3.44 V
2026-05-04 11:03:00 RF67 0.05% 11.9% 101% 65 3.44 V
2026-05-04 11:02:46 RF67 0.05% 11.9% 101% 65 3.44 V
2026-05-04 11:02:46 RF67 0.05% 11.9% 101% 65 3.44 V
2026-05-04 11:02:46 RF67 0.05% 11.9% 101% 65 3.44 V
2026-05-04 11:02:44 RF67 0.05% 11.9% 101% 65 3.44 V
2026-05-04 11:02:42 RF67 0.05% 11.9% 101% 65 3.44 V
2026-05-04 11:02:42 RF67 0.05% 11.9% 101% 65 3.44 V
2026-05-04 11:02:41 RF67 0.05% 11.9% 101% 65 3.44 V
2026-05-04 11:02:23 PTRH 0.27% 0.0% 55% 682862 3.76 V
2026-05-04 11:02:23 PTRH 0.27% 0.0% 55% 682862 3.76 V
2026-05-04 11:02:22 LRX1 1.9% 6.7% 29% 96022 3.52 V
2026-05-04 11:02:21 LRX1 1.9% 6.7% 29% 96022 3.52 V
2026-05-04 11:02:21 LRX1 1.9% 6.7% 29% 96022 3.52 V
2026-05-04 11:02:21 LRX1 1.9% 6.7% 29% 96022 3.52 V
2026-05-04 11:02:20 ah01 2.12% 6.8% 94% 1664566 4.11 V
2026-05-04 11:02:20 ah01 2.12% 6.8% 94% 1664566 4.11 V
2026-05-04 11:01:59 L1 3.43% 7.7% 101% 142876 4.24 V
2026-05-04 11:01:59 L1 3.43% 7.7% 101% 142876 4.24 V
2026-05-04 11:01:57 L1 3.43% 7.7% 101% 142876 4.24 V
2026-05-04 11:01:57 L1 3.43% 7.7% 101% 142876 4.24 V
2026-05-04 11:01:56 L1 3.43% 7.7% 101% 142876 4.24 V
2026-05-04 11:01:56 L1 3.43% 7.7% 101% 142876 4.24 V
2026-05-04 11:01:44 LRX1 1005.1 hPa 67.73% 19.92°C
2026-05-04 11:01:39 LRX1 1005.1 hPa 67.73% 19.92°C
2026-05-04 11:01:39 LRX1 1005.1 hPa 67.73% 19.92°C
2026-05-04 11:01:38 LRX1 1005.1 hPa 67.73% 19.92°C
2026-05-04 11:01:38 LRX1 1005.1 hPa 67.73% 19.92°C
2026-05-04 11:01:37 LRX1 1005.1 hPa 67.73% 19.92°C
2026-05-04 11:01:05 RF06 1.25% 0.0% 101% 3126 6.31 V
2026-05-04 11:01:04 RF06 1.25% 0.0% 101% 3126 6.31 V
2026-05-04 11:01:04 RF06 1.25% 0.0% 101% 3126 6.31 V
2026-05-04 11:01:04 RF06 1.25% 0.0% 101% 3126 6.31 V
2026-05-04 11:01:02 RF06 1.25% 0.0% 101% 3126 6.31 V
2026-05-04 11:01:00 RF06 1.25% 0.0% 101% 3126 6.31 V
2026-05-04 11:01:00 RF06 1.25% 0.0% 101% 3126 6.31 V
2026-05-04 11:01:00 RF06 1.25% 0.0% 101% 3126 6.31 V
2026-05-04 11:00:05 SMWS 0.79% 0.0% 54% 519064 3.76 V
Visit MeshInfo-Lite on Github. Also visit the original MeshInfo by Kevin Elliott.